sensor_id;sensor_type;location;lat;lon;timestamp;P1;durP1;ratioP1;P2;durP2;ratioP2
45254;SDS011;30989;52.078;21.014;2023-07-28T00:00:56;5.60;;;2.17;;
45254;SDS011;30989;52.078;21.014;2023-07-28T00:03:21;6.32;;;2.40;;
45254;SDS011;30989;52.078;21.014;2023-07-28T00:05:47;4.15;;;2.22;;
45254;SDS011;30989;52.078;21.014;2023-07-28T00:08:13;4.45;;;2.10;;
45254;SDS011;30989;52.078;21.014;2023-07-28T00:10:41;4.03;;;2.10;;
45254;SDS011;30989;52.078;21.014;2023-07-28T00:13:07;5.60;;;2.80;;
45254;SDS011;30989;52.078;21.014;2023-07-28T00:15:33;4.85;;;2.42;;
45254;SDS011;30989;52.078;21.014;2023-07-28T00:17:59;5.53;;;2.60;;
45254;SDS011;30989;52.078;21.014;2023-07-28T00:20:26;5.72;;;2.72;;
45254;SDS011;30989;52.078;21.014;2023-07-28T00:22:52;5.85;;;2.60;;
45254;SDS011;30989;52.078;21.014;2023-07-28T00:25:18;5.95;;;1.98;;
45254;SDS011;30989;52.078;21.014;2023-07-28T00:27:44;5.38;;;2.30;;
45254;SDS011;30989;52.078;21.014;2023-07-28T00:30:11;5.45;;;2.22;;
45254;SDS011;30989;52.078;21.014;2023-07-28T00:32:37;5.38;;;2.22;;
45254;SDS011;30989;52.078;21.014;2023-07-28T00:35:02;4.75;;;2.25;;
45254;SDS011;30989;52.078;21.014;2023-07-28T00:37:28;6.28;;;2.20;;
45254;SDS011;30989;52.078;21.014;2023-07-28T00:39:54;5.20;;;2.30;;
45254;SDS011;30989;52.078;21.014;2023-07-28T00:42:20;6.57;;;2.22;;
45254;SDS011;30989;52.078;21.014;2023-07-28T00:44:45;7.43;;;3.17;;
45254;SDS011;30989;52.078;21.014;2023-07-28T00:47:11;7.20;;;2.47;;
45254;SDS011;30989;52.078;21.014;2023-07-28T00:49:37;4.00;;;2.03;;
45254;SDS011;30989;52.078;21.014;2023-07-28T00:52:04;4.45;;;2.03;;
45254;SDS011;30989;52.078;21.014;2023-07-28T00:54:32;5.35;;;2.08;;
45254;SDS011;30989;52.078;21.014;2023-07-28T00:56:57;8.18;;;2.47;;
45254;SDS011;30989;52.078;21.014;2023-07-28T00:59:23;8.48;;;2.80;;
45254;SDS011;30989;52.078;21.014;2023-07-28T01:01:49;3.38;;;2.00;;
45254;SDS011;30989;52.078;21.014;2023-07-28T01:04:14;4.72;;;2.22;;
45254;SDS011;30989;52.078;21.014;2023-07-28T01:06:41;6.45;;;2.35;;
45254;SDS011;30989;52.078;21.014;2023-07-28T01:09:16;3.92;;;2.28;;
45254;SDS011;30989;52.078;21.014;2023-07-28T01:11:58;3.88;;;2.00;;
45254;SDS011;30989;52.078;21.014;2023-07-28T01:14:26;9.15;;;2.10;;
45254;SDS011;30989;52.078;21.014;2023-07-28T01:16:51;4.72;;;2.22;;
45254;SDS011;30989;52.078;21.014;2023-07-28T01:19:18;6.15;;;2.17;;
45254;SDS011;30989;52.078;21.014;2023-07-28T01:21:47;5.43;;;2.05;;
45254;SDS011;30989;52.078;21.014;2023-07-28T01:24:28;4.20;;;2.25;;
45254;SDS011;30989;52.078;21.014;2023-07-28T01:27:01;5.90;;;2.15;;
45254;SDS011;30989;52.078;21.014;2023-07-28T01:29:27;4.45;;;2.17;;
45254;SDS011;30989;52.078;21.014;2023-07-28T01:31:53;6.47;;;2.30;;
45254;SDS011;30989;52.078;21.014;2023-07-28T01:34:18;5.32;;;3.05;;
45254;SDS011;30989;52.078;21.014;2023-07-28T01:36:43;5.75;;;2.00;;
45254;SDS011;30989;52.078;21.014;2023-07-28T01:39:09;6.95;;;2.55;;
45254;SDS011;30989;52.078;21.014;2023-07-28T01:41:34;4.53;;;2.78;;
45254;SDS011;30989;52.078;21.014;2023-07-28T01:44:00;4.45;;;2.78;;
45254;SDS011;30989;52.078;21.014;2023-07-28T01:46:25;5.85;;;2.50;;
45254;SDS011;30989;52.078;21.014;2023-07-28T01:48:51;5.15;;;2.80;;
45254;SDS011;30989;52.078;21.014;2023-07-28T01:51:16;6.10;;;2.25;;
45254;SDS011;30989;52.078;21.014;2023-07-28T01:53:42;3.60;;;2.08;;
45254;SDS011;30989;52.078;21.014;2023-07-28T01:56:07;5.18;;;2.58;;
45254;SDS011;30989;52.078;21.014;2023-07-28T01:58:33;6.35;;;2.33;;
45254;SDS011;30989;52.078;21.014;2023-07-28T02:00:58;5.07;;;2.25;;
45254;SDS011;30989;52.078;21.014;2023-07-28T02:03:24;4.90;;;2.00;;
45254;SDS011;30989;52.078;21.014;2023-07-28T02:05:49;11.13;;;2.72;;
45254;SDS011;30989;52.078;21.014;2023-07-28T02:08:15;6.55;;;2.55;;
45254;SDS011;30989;52.078;21.014;2023-07-28T02:10:40;4.22;;;2.20;;
45254;SDS011;30989;52.078;21.014;2023-07-28T02:13:05;4.18;;;2.08;;
45254;SDS011;30989;52.078;21.014;2023-07-28T02:15:31;3.72;;;2.03;;
45254;SDS011;30989;52.078;21.014;2023-07-28T02:17:56;3.97;;;2.03;;
45254;SDS011;30989;52.078;21.014;2023-07-28T02:20:22;5.22;;;2.40;;
45254;SDS011;30989;52.078;21.014;2023-07-28T02:22:47;4.97;;;2.20;;
45254;SDS011;30989;52.078;21.014;2023-07-28T02:25:13;8.52;;;3.75;;
45254;SDS011;30989;52.078;21.014;2023-07-28T02:27:38;6.82;;;3.33;;
45254;SDS011;30989;52.078;21.014;2023-07-28T02:30:04;10.38;;;3.03;;
45254;SDS011;30989;52.078;21.014;2023-07-28T02:32:31;7.32;;;2.30;;
45254;SDS011;30989;52.078;21.014;2023-07-28T02:34:57;5.32;;;2.60;;
45254;SDS011;30989;52.078;21.014;2023-07-28T02:37:22;5.75;;;2.38;;
45254;SDS011;30989;52.078;21.014;2023-07-28T02:39:49;5.43;;;2.22;;
45254;SDS011;30989;52.078;21.014;2023-07-28T02:42:14;6.53;;;3.47;;
45254;SDS011;30989;52.078;21.014;2023-07-28T02:44:40;8.93;;;3.55;;
45254;SDS011;30989;52.078;21.014;2023-07-28T02:47:05;4.68;;;2.42;;
45254;SDS011;30989;52.078;21.014;2023-07-28T02:49:31;9.68;;;3.25;;
45254;SDS011;30989;52.078;21.014;2023-07-28T02:51:56;5.22;;;2.47;;
45254;SDS011;30989;52.078;21.014;2023-07-28T02:54:22;6.75;;;2.45;;
45254;SDS011;30989;52.078;21.014;2023-07-28T02:56:49;6.70;;;3.00;;
45254;SDS011;30989;52.078;21.014;2023-07-28T02:59:14;5.82;;;2.75;;
45254;SDS011;30989;52.078;21.014;2023-07-28T03:01:40;4.88;;;2.60;;
45254;SDS011;30989;52.078;21.014;2023-07-28T03:04:06;5.40;;;2.55;;
45254;SDS011;30989;52.078;21.014;2023-07-28T03:06:50;5.28;;;2.75;;
45254;SDS011;30989;52.078;21.014;2023-07-28T03:09:16;9.65;;;2.80;;
45254;SDS011;30989;52.078;21.014;2023-07-28T03:11:49;4.40;;;2.30;;
45254;SDS011;30989;52.078;21.014;2023-07-28T03:14:15;7.18;;;3.00;;
45254;SDS011;30989;52.078;21.014;2023-07-28T03:16:41;6.63;;;2.80;;
45254;SDS011;30989;52.078;21.014;2023-07-28T03:19:07;6.15;;;2.38;;
45254;SDS011;30989;52.078;21.014;2023-07-28T03:21:32;8.02;;;2.67;;
45254;SDS011;30989;52.078;21.014;2023-07-28T03:23:58;14.77;;;5.80;;
45254;SDS011;30989;52.078;21.014;2023-07-28T03:26:23;10.93;;;5.18;;
45254;SDS011;30989;52.078;21.014;2023-07-28T03:28:49;7.38;;;2.78;;
45254;SDS011;30989;52.078;21.014;2023-07-28T03:31:14;4.70;;;2.17;;
45254;SDS011;30989;52.078;21.014;2023-07-28T03:33:40;7.30;;;3.60;;
45254;SDS011;30989;52.078;21.014;2023-07-28T03:36:05;6.35;;;2.97;;
45254;SDS011;30989;52.078;21.014;2023-07-28T03:38:33;6.68;;;2.45;;
45254;SDS011;30989;52.078;21.014;2023-07-28T03:40:58;5.63;;;2.83;;
45254;SDS011;30989;52.078;21.014;2023-07-28T03:43:23;5.03;;;2.63;;
45254;SDS011;30989;52.078;21.014;2023-07-28T03:45:49;8.07;;;2.53;;
45254;SDS011;30989;52.078;21.014;2023-07-28T03:48:14;7.95;;;2.65;;
45254;SDS011;30989;52.078;21.014;2023-07-28T03:50:40;4.97;;;2.58;;
45254;SDS011;30989;52.078;21.014;2023-07-28T03:53:05;9.38;;;3.10;;
45254;SDS011;30989;52.078;21.014;2023-07-28T03:55:32;6.65;;;2.67;;
45254;SDS011;30989;52.078;21.014;2023-07-28T03:57:57;4.53;;;2.67;;
45254;SDS011;30989;52.078;21.014;2023-07-28T04:00:23;6.18;;;3.13;;
45254;SDS011;30989;52.078;21.014;2023-07-28T04:02:48;4.50;;;2.60;;
45254;SDS011;30989;52.078;21.014;2023-07-28T04:05:13;5.93;;;2.38;;
45254;SDS011;30989;52.078;21.014;2023-07-28T04:07:39;5.28;;;2.40;;
45254;SDS011;30989;52.078;21.014;2023-07-28T04:10:04;9.93;;;4.93;;
45254;SDS011;30989;52.078;21.014;2023-07-28T04:12:30;9.75;;;2.85;;
45254;SDS011;30989;52.078;21.014;2023-07-28T04:14:56;5.40;;;3.03;;
45254;SDS011;30989;52.078;21.014;2023-07-28T04:17:21;6.82;;;2.95;;
45254;SDS011;30989;52.078;21.014;2023-07-28T04:19:47;7.82;;;3.10;;
45254;SDS011;30989;52.078;21.014;2023-07-28T04:22:12;6.35;;;2.80;;
45254;SDS011;30989;52.078;21.014;2023-07-28T04:24:38;4.20;;;2.38;;
45254;SDS011;30989;52.078;21.014;2023-07-28T04:27:04;7.85;;;2.50;;
45254;SDS011;30989;52.078;21.014;2023-07-28T04:29:30;7.57;;;3.25;;
45254;SDS011;30989;52.078;21.014;2023-07-28T04:31:57;14.45;;;2.88;;
45254;SDS011;30989;52.078;21.014;2023-07-28T04:34:29;6.57;;;3.03;;
45254;SDS011;30989;52.078;21.014;2023-07-28T04:37:15;11.85;;;4.55;;
45254;SDS011;30989;52.078;21.014;2023-07-28T04:40:07;7.25;;;3.15;;
45254;SDS011;30989;52.078;21.014;2023-07-28T04:42:36;4.72;;;2.35;;
45254;SDS011;30989;52.078;21.014;2023-07-28T04:45:02;6.45;;;3.20;;
45254;SDS011;30989;52.078;21.014;2023-07-28T04:47:29;4.57;;;2.47;;
45254;SDS011;30989;52.078;21.014;2023-07-28T04:49:55;9.63;;;1.95;;
45254;SDS011;30989;52.078;21.014;2023-07-28T04:52:59;5.32;;;2.35;;
45254;SDS011;30989;52.078;21.014;2023-07-28T04:55:47;11.90;;;2.70;;
45254;SDS011;30989;52.078;21.014;2023-07-28T04:58:13;10.77;;;4.93;;
45254;SDS011;30989;52.078;21.014;2023-07-28T05:00:46;9.90;;;3.00;;
45254;SDS011;30989;52.078;21.014;2023-07-28T05:03:11;5.85;;;2.47;;
45254;SDS011;30989;52.078;21.014;2023-07-28T05:05:44;5.18;;;2.50;;
45254;SDS011;30989;52.078;21.014;2023-07-28T05:08:11;9.45;;;2.15;;
45254;SDS011;30989;52.078;21.014;2023-07-28T05:10:37;7.20;;;2.50;;
45254;SDS011;30989;52.078;21.014;2023-07-28T05:13:02;5.88;;;2.20;;
45254;SDS011;30989;52.078;21.014;2023-07-28T05:15:29;3.65;;;2.10;;
45254;SDS011;30989;52.078;21.014;2023-07-28T05:17:55;4.75;;;2.47;;
45254;SDS011;30989;52.078;21.014;2023-07-28T05:20:53;5.78;;;2.25;;
45254;SDS011;30989;52.078;21.014;2023-07-28T05:23:18;4.78;;;2.47;;
45254;SDS011;30989;52.078;21.014;2023-07-28T05:25:44;4.32;;;2.08;;
45254;SDS011;30989;52.078;21.014;2023-07-28T05:28:09;6.80;;;2.53;;
45254;SDS011;30989;52.078;21.014;2023-07-28T05:30:38;4.85;;;2.53;;
45254;SDS011;30989;52.078;21.014;2023-07-28T05:33:03;5.80;;;2.40;;
45254;SDS011;30989;52.078;21.014;2023-07-28T05:35:45;16.02;;;2.60;;
45254;SDS011;30989;52.078;21.014;2023-07-28T05:38:11;6.72;;;2.00;;
45254;SDS011;30989;52.078;21.014;2023-07-28T05:40:36;7.20;;;2.20;;
45254;SDS011;30989;52.078;21.014;2023-07-28T05:43:01;9.20;;;2.05;;
45254;SDS011;30989;52.078;21.014;2023-07-28T05:45:28;3.72;;;2.05;;
45254;SDS011;30989;52.078;21.014;2023-07-28T05:47:53;9.70;;;4.18;;
45254;SDS011;30989;52.078;21.014;2023-07-28T05:50:18;5.75;;;2.03;;
45254;SDS011;30989;52.078;21.014;2023-07-28T05:52:44;6.30;;;2.53;;
45254;SDS011;30989;52.078;21.014;2023-07-28T05:55:09;5.22;;;2.13;;
45254;SDS011;30989;52.078;21.014;2023-07-28T05:57:38;4.07;;;2.05;;
45254;SDS011;30989;52.078;21.014;2023-07-28T06:00:06;4.10;;;2.03;;
45254;SDS011;30989;52.078;21.014;2023-07-28T06:02:39;5.05;;;2.15;;
45254;SDS011;30989;52.078;21.014;2023-07-28T06:05:05;4.22;;;2.08;;
45254;SDS011;30989;52.078;21.014;2023-07-28T06:07:31;6.53;;;2.00;;
45254;SDS011;30989;52.078;21.014;2023-07-28T06:09:56;7.43;;;2.42;;
45254;SDS011;30989;52.078;21.014;2023-07-28T06:12:22;4.75;;;2.03;;
45254;SDS011;30989;52.078;21.014;2023-07-28T06:14:47;4.63;;;2.50;;
45254;SDS011;30989;52.078;21.014;2023-07-28T06:17:13;7.05;;;2.70;;
45254;SDS011;30989;52.078;21.014;2023-07-28T06:19:38;8.10;;;3.33;;
45254;SDS011;30989;52.078;21.014;2023-07-28T06:22:04;5.95;;;2.53;;
45254;SDS011;30989;52.078;21.014;2023-07-28T06:24:32;6.28;;;1.75;;
45254;SDS011;30989;52.078;21.014;2023-07-28T06:26:59;4.78;;;1.95;;
45254;SDS011;30989;52.078;21.014;2023-07-28T06:29:25;6.38;;;2.35;;
45254;SDS011;30989;52.078;21.014;2023-07-28T06:31:50;4.03;;;1.98;;
45254;SDS011;30989;52.078;21.014;2023-07-28T06:34:16;5.32;;;2.10;;
45254;SDS011;30989;52.078;21.014;2023-07-28T06:36:42;3.95;;;1.70;;
45254;SDS011;30989;52.078;21.014;2023-07-28T06:39:07;5.90;;;1.95;;
45254;SDS011;30989;52.078;21.014;2023-07-28T06:41:34;5.05;;;2.33;;
45254;SDS011;30989;52.078;21.014;2023-07-28T06:44:01;5.68;;;2.00;;
45254;SDS011;30989;52.078;21.014;2023-07-28T06:46:28;6.28;;;2.15;;
45254;SDS011;30989;52.078;21.014;2023-07-28T06:48:54;4.97;;;2.10;;
45254;SDS011;30989;52.078;21.014;2023-07-28T06:51:19;5.97;;;2.50;;
45254;SDS011;30989;52.078;21.014;2023-07-28T06:53:44;4.35;;;1.75;;
45254;SDS011;30989;52.078;21.014;2023-07-28T06:56:10;4.50;;;1.88;;
45254;SDS011;30989;52.078;21.014;2023-07-28T06:58:35;4.40;;;1.90;;
45254;SDS011;30989;52.078;21.014;2023-07-28T07:01:01;3.60;;;1.80;;
45254;SDS011;30989;52.078;21.014;2023-07-28T07:03:26;3.75;;;1.92;;
45254;SDS011;30989;52.078;21.014;2023-07-28T07:05:52;5.68;;;2.40;;
45254;SDS011;30989;52.078;21.014;2023-07-28T07:08:17;4.40;;;2.20;;
45254;SDS011;30989;52.078;21.014;2023-07-28T07:10:49;4.13;;;2.70;;
45254;SDS011;30989;52.078;21.014;2023-07-28T07:13:15;5.05;;;2.20;;
45254;SDS011;30989;52.078;21.014;2023-07-28T07:15:41;6.15;;;3.08;;
45254;SDS011;30989;52.078;21.014;2023-07-28T07:18:07;5.03;;;2.00;;
45254;SDS011;30989;52.078;21.014;2023-07-28T07:20:38;5.90;;;2.33;;
45254;SDS011;30989;52.078;21.014;2023-07-28T07:23:04;6.03;;;2.33;;
45254;SDS011;30989;52.078;21.014;2023-07-28T07:25:30;8.77;;;2.30;;
45254;SDS011;30989;52.078;21.014;2023-07-28T07:27:56;4.15;;;2.20;;
45254;SDS011;30989;52.078;21.014;2023-07-28T07:30:22;6.85;;;3.17;;
45254;SDS011;30989;52.078;21.014;2023-07-28T07:32:47;6.85;;;2.50;;
45254;SDS011;30989;52.078;21.014;2023-07-28T07:35:13;4.50;;;2.13;;
45254;SDS011;30989;52.078;21.014;2023-07-28T07:37:38;5.40;;;2.35;;
45254;SDS011;30989;52.078;21.014;2023-07-28T07:40:04;7.18;;;2.42;;
45254;SDS011;30989;52.078;21.014;2023-07-28T07:42:41;4.57;;;2.58;;
45254;SDS011;30989;52.078;21.014;2023-07-28T07:45:09;6.40;;;3.25;;
45254;SDS011;30989;52.078;21.014;2023-07-28T07:47:35;5.20;;;2.78;;
45254;SDS011;30989;52.078;21.014;2023-07-28T07:50:01;6.03;;;2.40;;
45254;SDS011;30989;52.078;21.014;2023-07-28T07:52:26;4.97;;;2.53;;
45254;SDS011;30989;52.078;21.014;2023-07-28T07:54:51;7.05;;;2.35;;
45254;SDS011;30989;52.078;21.014;2023-07-28T07:57:17;7.05;;;2.38;;
45254;SDS011;30989;52.078;21.014;2023-07-28T07:59:42;4.15;;;2.30;;
45254;SDS011;30989;52.078;21.014;2023-07-28T08:02:08;4.25;;;2.25;;
45254;SDS011;30989;52.078;21.014;2023-07-28T08:04:33;4.30;;;2.15;;
45254;SDS011;30989;52.078;21.014;2023-07-28T08:06:59;4.25;;;2.38;;
45254;SDS011;30989;52.078;21.014;2023-07-28T08:09:25;4.13;;;1.83;;
45254;SDS011;30989;52.078;21.014;2023-07-28T08:11:50;5.72;;;2.75;;
45254;SDS011;30989;52.078;21.014;2023-07-28T08:14:16;4.78;;;2.20;;
45254;SDS011;30989;52.078;21.014;2023-07-28T08:16:41;3.72;;;2.08;;
45254;SDS011;30989;52.078;21.014;2023-07-28T08:19:07;4.13;;;2.30;;
45254;SDS011;30989;52.078;21.014;2023-07-28T08:21:32;3.78;;;2.03;;
45254;SDS011;30989;52.078;21.014;2023-07-28T08:24:01;3.90;;;2.42;;
45254;SDS011;30989;52.078;21.014;2023-07-28T08:26:30;7.80;;;2.95;;
45254;SDS011;30989;52.078;21.014;2023-07-28T08:28:55;5.03;;;2.22;;
45254;SDS011;30989;52.078;21.014;2023-07-28T08:31:21;4.45;;;2.35;;
45254;SDS011;30989;52.078;21.014;2023-07-28T08:33:46;15.48;;;6.35;;
45254;SDS011;30989;52.078;21.014;2023-07-28T08:36:12;4.70;;;2.50;;
45254;SDS011;30989;52.078;21.014;2023-07-28T08:38:37;4.18;;;2.28;;
45254;SDS011;30989;52.078;21.014;2023-07-28T08:41:04;5.43;;;2.40;;
45254;SDS011;30989;52.078;21.014;2023-07-28T08:43:30;7.93;;;2.75;;
45254;SDS011;30989;52.078;21.014;2023-07-28T08:45:56;4.30;;;2.22;;
45254;SDS011;30989;52.078;21.014;2023-07-28T08:48:22;5.28;;;2.80;;
45254;SDS011;30989;52.078;21.014;2023-07-28T08:50:48;4.93;;;2.13;;
45254;SDS011;30989;52.078;21.014;2023-07-28T08:53:14;4.40;;;2.22;;
45254;SDS011;30989;52.078;21.014;2023-07-28T08:55:40;5.43;;;2.40;;
45254;SDS011;30989;52.078;21.014;2023-07-28T08:58:15;4.10;;;2.42;;
45254;SDS011;30989;52.078;21.014;2023-07-28T09:00:45;4.47;;;2.63;;
45254;SDS011;30989;52.078;21.014;2023-07-28T09:03:14;6.65;;;2.90;;
45254;SDS011;30989;52.078;21.014;2023-07-28T09:05:40;4.18;;;2.35;;
45254;SDS011;30989;52.078;21.014;2023-07-28T09:08:06;6.07;;;2.30;;
45254;SDS011;30989;52.078;21.014;2023-07-28T09:10:42;4.65;;;2.10;;
45254;SDS011;30989;52.078;21.014;2023-07-28T09:13:14;4.15;;;1.80;;
45254;SDS011;30989;52.078;21.014;2023-07-28T09:15:41;4.05;;;2.10;;
45254;SDS011;30989;52.078;21.014;2023-07-28T09:18:07;5.68;;;2.45;;
45254;SDS011;30989;52.078;21.014;2023-07-28T09:20:42;6.10;;;2.30;;
45254;SDS011;30989;52.078;21.014;2023-07-28T09:23:09;5.65;;;2.80;;
45254;SDS011;30989;52.078;21.014;2023-07-28T09:25:35;4.63;;;2.38;;
45254;SDS011;30989;52.078;21.014;2023-07-28T09:28:02;4.95;;;2.30;;
45254;SDS011;30989;52.078;21.014;2023-07-28T09:30:44;5.03;;;2.55;;
45254;SDS011;30989;52.078;21.014;2023-07-28T09:33:11;4.07;;;2.40;;
45254;SDS011;30989;52.078;21.014;2023-07-28T09:35:46;5.18;;;2.55;;
45254;SDS011;30989;52.078;21.014;2023-07-28T09:38:13;4.15;;;2.60;;
45254;SDS011;30989;52.078;21.014;2023-07-28T09:40:40;5.07;;;2.42;;
45254;SDS011;30989;52.078;21.014;2023-07-28T09:43:06;5.13;;;2.50;;
45254;SDS011;30989;52.078;21.014;2023-07-28T09:45:32;5.82;;;2.35;;
45254;SDS011;30989;52.078;21.014;2023-07-28T09:48:00;3.20;;;1.88;;
45254;SDS011;30989;52.078;21.014;2023-07-28T09:50:27;4.20;;;2.13;;
45254;SDS011;30989;52.078;21.014;2023-07-28T09:52:58;4.75;;;2.40;;
45254;SDS011;30989;52.078;21.014;2023-07-28T09:55:29;3.83;;;2.03;;
45254;SDS011;30989;52.078;21.014;2023-07-28T09:57:56;5.60;;;2.67;;
45254;SDS011;30989;52.078;21.014;2023-07-28T10:00:26;6.50;;;2.03;;
45254;SDS011;30989;52.078;21.014;2023-07-28T10:02:52;7.93;;;2.40;;
45254;SDS011;30989;52.078;21.014;2023-07-28T10:05:18;6.57;;;2.42;;
45254;SDS011;30989;52.078;21.014;2023-07-28T10:07:44;7.03;;;2.60;;
45254;SDS011;30989;52.078;21.014;2023-07-28T10:10:11;6.88;;;2.67;;
45254;SDS011;30989;52.078;21.014;2023-07-28T10:12:42;4.63;;;2.30;;
45254;SDS011;30989;52.078;21.014;2023-07-28T10:15:14;4.53;;;2.53;;
45254;SDS011;30989;52.078;21.014;2023-07-28T10:17:45;5.65;;;2.95;;
45254;SDS011;30989;52.078;21.014;2023-07-28T10:23:22;7.50;;;2.87;;
45254;SDS011;30989;52.078;21.014;2023-07-28T10:25:55;6.22;;;2.75;;
45254;SDS011;30989;52.078;21.014;2023-07-28T10:28:36;9.20;;;3.22;;
45254;SDS011;30989;52.078;21.014;2023-07-28T10:31:07;4.00;;;2.35;;
45254;SDS011;30989;52.078;21.014;2023-07-28T10:33:44;5.30;;;2.70;;
45254;SDS011;30989;52.078;21.014;2023-07-28T10:36:43;4.70;;;2.45;;
45254;SDS011;30989;52.078;21.014;2023-07-28T10:41:34;8.95;;;2.88;;
45254;SDS011;30989;52.078;21.014;2023-07-28T10:44:01;5.97;;;2.58;;
45254;SDS011;30989;52.078;21.014;2023-07-28T10:46:27;6.68;;;2.85;;
45254;SDS011;30989;52.078;21.014;2023-07-28T10:48:53;6.13;;;2.42;;
45254;SDS011;30989;52.078;21.014;2023-07-28T10:51:25;6.75;;;2.83;;
45254;SDS011;30989;52.078;21.014;2023-07-28T10:53:57;5.38;;;2.47;;
45254;SDS011;30989;52.078;21.014;2023-07-28T10:56:24;4.50;;;2.50;;
45254;SDS011;30989;52.078;21.014;2023-07-28T10:58:59;5.25;;;2.67;;
45254;SDS011;30989;52.078;21.014;2023-07-28T11:01:32;4.78;;;2.63;;
45254;SDS011;30989;52.078;21.014;2023-07-28T11:04:07;8.20;;;2.42;;
45254;SDS011;30989;52.078;21.014;2023-07-28T11:06:34;6.03;;;3.22;;
45254;SDS011;30989;52.078;21.014;2023-07-28T11:08:59;4.53;;;2.30;;
45254;SDS011;30989;52.078;21.014;2023-07-28T11:11:25;7.38;;;2.35;;
45254;SDS011;30989;52.078;21.014;2023-07-28T11:13:51;6.32;;;3.22;;
45254;SDS011;30989;52.078;21.014;2023-07-28T11:16:16;4.40;;;2.42;;
45254;SDS011;30989;52.078;21.014;2023-07-28T11:18:42;6.00;;;2.92;;
45254;SDS011;30989;52.078;21.014;2023-07-28T11:21:08;6.35;;;2.85;;
45254;SDS011;30989;52.078;21.014;2023-07-28T11:23:33;4.82;;;2.50;;
45254;SDS011;30989;52.078;21.014;2023-07-28T11:25:59;6.00;;;2.53;;
45254;SDS011;30989;52.078;21.014;2023-07-28T11:28:24;4.13;;;2.22;;
45254;SDS011;30989;52.078;21.014;2023-07-28T11:30:50;4.65;;;2.78;;
45254;SDS011;30989;52.078;21.014;2023-07-28T11:33:16;5.45;;;2.38;;
45254;SDS011;30989;52.078;21.014;2023-07-28T11:35:43;5.72;;;2.40;;
45254;SDS011;30989;52.078;21.014;2023-07-28T11:38:09;4.57;;;2.13;;
45254;SDS011;30989;52.078;21.014;2023-07-28T11:40:36;4.95;;;2.60;;
45254;SDS011;30989;52.078;21.014;2023-07-28T11:43:02;5.45;;;2.25;;
45254;SDS011;30989;52.078;21.014;2023-07-28T11:45:29;5.95;;;1.98;;
45254;SDS011;30989;52.078;21.014;2023-07-28T11:50:22;3.90;;;1.90;;
45254;SDS011;30989;52.078;21.014;2023-07-28T11:52:49;4.05;;;1.70;;
45254;SDS011;30989;52.078;21.014;2023-07-28T11:55:14;3.17;;;1.73;;
45254;SDS011;30989;52.078;21.014;2023-07-28T11:57:42;14.63;;;1.73;;
45254;SDS011;30989;52.078;21.014;2023-07-28T12:00:08;3.67;;;1.20;;
45254;SDS011;30989;52.078;21.014;2023-07-28T12:02:34;3.03;;;1.60;;
45254;SDS011;30989;52.078;21.014;2023-07-28T12:05:00;3.03;;;1.60;;
45254;SDS011;30989;52.078;21.014;2023-07-28T12:07:32;3.20;;;1.30;;
45254;SDS011;30989;52.078;21.014;2023-07-28T12:10:04;4.82;;;1.58;;
45254;SDS011;30989;52.078;21.014;2023-07-28T12:12:39;2.90;;;1.80;;
45254;SDS011;30989;52.078;21.014;2023-07-28T12:18:02;4.43;;;1.58;;
45254;SDS011;30989;52.078;21.014;2023-07-28T12:20:48;3.35;;;1.52;;
45254;SDS011;30989;52.078;21.014;2023-07-28T12:23:16;2.90;;;1.15;;
45254;SDS011;30989;52.078;21.014;2023-07-28T12:25:44;4.03;;;2.05;;
45254;SDS011;30989;52.078;21.014;2023-07-28T12:28:09;5.30;;;1.40;;
45254;SDS011;30989;52.078;21.014;2023-07-28T12:30:35;5.78;;;1.35;;
45254;SDS011;30989;52.078;21.014;2023-07-28T12:33:02;2.50;;;1.25;;
45254;SDS011;30989;52.078;21.014;2023-07-28T12:35:31;2.17;;;1.13;;
45254;SDS011;30989;52.078;21.014;2023-07-28T12:38:00;2.40;;;1.15;;
45254;SDS011;30989;52.078;21.014;2023-07-28T12:40:30;2.25;;;1.02;;
45254;SDS011;30989;52.078;21.014;2023-07-28T12:42:58;1.55;;;0.95;;
45254;SDS011;30989;52.078;21.014;2023-07-28T12:45:24;1.65;;;0.80;;
45254;SDS011;30989;52.078;21.014;2023-07-28T12:47:54;1.70;;;0.70;;
45254;SDS011;30989;52.078;21.014;2023-07-28T12:50:20;2.58;;;1.33;;
45254;SDS011;30989;52.078;21.014;2023-07-28T12:52:46;2.47;;;1.08;;
45254;SDS011;30989;52.078;21.014;2023-07-28T12:55:13;5.50;;;0.90;;
45254;SDS011;30989;52.078;21.014;2023-07-28T12:57:39;3.05;;;1.17;;
45254;SDS011;30989;52.078;21.014;2023-07-28T13:00:05;1.35;;;0.50;;
45254;SDS011;30989;52.078;21.014;2023-07-28T13:02:40;2.20;;;1.00;;
45254;SDS011;30989;52.078;21.014;2023-07-28T13:05:07;2.95;;;1.33;;
45254;SDS011;30989;52.078;21.014;2023-07-28T13:07:35;1.90;;;0.80;;
45254;SDS011;30989;52.078;21.014;2023-07-28T13:10:01;2.63;;;0.80;;
45254;SDS011;30989;52.078;21.014;2023-07-28T13:12:28;1.50;;;0.60;;
45254;SDS011;30989;52.078;21.014;2023-07-28T13:14:54;1.00;;;0.50;;
45254;SDS011;30989;52.078;21.014;2023-07-28T13:17:20;1.98;;;1.00;;
45254;SDS011;30989;52.078;21.014;2023-07-28T13:19:45;2.03;;;0.90;;
45254;SDS011;30989;52.078;21.014;2023-07-28T13:22:11;4.18;;;0.88;;
45254;SDS011;30989;52.078;21.014;2023-07-28T13:24:36;1.60;;;0.70;;
45254;SDS011;30989;52.078;21.014;2023-07-28T13:27:03;2.88;;;0.60;;
45254;SDS011;30989;52.078;21.014;2023-07-28T13:29:29;2.67;;;0.52;;
45254;SDS011;30989;52.078;21.014;2023-07-28T13:31:57;2.25;;;0.55;;
45254;SDS011;30989;52.078;21.014;2023-07-28T13:34:27;1.50;;;0.75;;
45254;SDS011;30989;52.078;21.014;2023-07-28T13:36:53;2.03;;;0.80;;
45254;SDS011;30989;52.078;21.014;2023-07-28T13:39:19;1.30;;;0.63;;
45254;SDS011;30989;52.078;21.014;2023-07-28T13:41:45;2.90;;;0.70;;
45254;SDS011;30989;52.078;21.014;2023-07-28T13:44:10;2.63;;;1.08;;
45254;SDS011;30989;52.078;21.014;2023-07-28T13:46:35;3.05;;;0.70;;
45254;SDS011;30989;52.078;21.014;2023-07-28T13:49:01;4.78;;;1.25;;
45254;SDS011;30989;52.078;21.014;2023-07-28T13:51:28;1.48;;;0.73;;
45254;SDS011;30989;52.078;21.014;2023-07-28T13:53:54;1.63;;;0.73;;
45254;SDS011;30989;52.078;21.014;2023-07-28T13:56:19;1.80;;;0.80;;
45254;SDS011;30989;52.078;21.014;2023-07-28T13:58:45;3.53;;;0.70;;
45254;SDS011;30989;52.078;21.014;2023-07-28T14:01:10;1.80;;;0.90;;
45254;SDS011;30989;52.078;21.014;2023-07-28T14:03:36;1.80;;;0.80;;
45254;SDS011;30989;52.078;21.014;2023-07-28T14:06:02;1.67;;;0.90;;
45254;SDS011;30989;52.078;21.014;2023-07-28T14:08:27;1.45;;;0.80;;
45254;SDS011;30989;52.078;21.014;2023-07-28T14:10:53;2.45;;;1.02;;
45254;SDS011;30989;52.078;21.014;2023-07-28T14:13:19;1.52;;;0.70;;
45254;SDS011;30989;52.078;21.014;2023-07-28T14:15:44;1.40;;;0.65;;
45254;SDS011;30989;52.078;21.014;2023-07-28T14:18:09;2.05;;;0.93;;
45254;SDS011;30989;52.078;21.014;2023-07-28T14:20:35;1.55;;;0.70;;
45254;SDS011;30989;52.078;21.014;2023-07-28T14:23:00;1.85;;;1.08;;
45254;SDS011;30989;52.078;21.014;2023-07-28T14:25:27;2.08;;;0.80;;
45254;SDS011;30989;52.078;21.014;2023-07-28T14:27:52;1.02;;;0.60;;
45254;SDS011;30989;52.078;21.014;2023-07-28T14:30:18;1.42;;;0.68;;
45254;SDS011;30989;52.078;21.014;2023-07-28T14:32:43;1.00;;;0.60;;
45254;SDS011;30989;52.078;21.014;2023-07-28T14:35:09;1.38;;;0.60;;
45254;SDS011;30989;52.078;21.014;2023-07-28T14:37:34;0.90;;;0.45;;
45254;SDS011;30989;52.078;21.014;2023-07-28T14:40:00;1.73;;;0.90;;
45254;SDS011;30989;52.078;21.014;2023-07-28T14:42:26;3.17;;;0.88;;
45254;SDS011;30989;52.078;21.014;2023-07-28T14:44:51;2.20;;;1.30;;